Time;durP1;ratioP1;P1;durP2;ratioP2;P2;SDS_P1;SDS_P2;PMS_P1;PMS_P2;Temp;Humidity;BMP_temperature;BMP_pressure;BME280_temperature;BME280_humidity;BME280_pressure;Samples;Min_cycle;Max_cycle;Signal;HPM_P1;HPM_P2
2022/10/28 00:01:04;;;;;;;8.50;6.13;;;15.10;99.90;;;;;;4917905;29;20476;-75
2022/10/28 00:03:36;;;;;;;7.67;6.80;;;15.10;99.90;;;;;;4919073;29;20445;-75
2022/10/28 00:06:07;;;;;;;8.73;7.20;;;15.10;99.90;;;;;;4919299;29;20899;-75
2022/10/28 00:08:36;;;;;;;8.77;7.33;;;15.00;99.90;;;;;;4917842;29;20455;-75
2022/10/28 00:11:08;;;;;;;7.87;6.50;;;15.00;99.90;;;;;;4919263;29;20456;-75
2022/10/28 00:13:37;;;;;;;7.30;6.13;;;14.90;99.90;;;;;;4923931;29;20452;-76
2022/10/28 00:16:07;;;;;;;10.27;7.50;;;14.90;99.90;;;;;;4924463;29;20435;-75
2022/10/28 00:18:35;;;;;;;8.00;6.17;;;14.90;99.90;;;;;;4924075;29;20512;-76
2022/10/28 00:21:06;;;;;;;9.83;6.93;;;14.90;99.90;;;;;;4925409;29;20559;-76
2022/10/28 00:23:34;;;;;;;8.70;7.10;;;14.80;99.90;;;;;;4924129;29;20435;-75
2022/10/28 00:26:08;;;;;;;8.10;6.60;;;14.80;99.90;;;;;;4922118;29;20460;-75
2022/10/28 00:28:41;;;;;;;9.90;7.93;;;14.80;99.90;;;;;;4922719;29;20431;-73
2022/10/28 00:31:11;;;;;;;9.33;6.40;;;14.80;99.90;;;;;;4921663;29;21020;-74
2022/10/28 00:33:40;;;;;;;10.10;7.07;;;14.80;99.90;;;;;;4919124;29;20436;-76
2022/10/28 00:36:13;;;;;;;9.63;7.80;;;14.70;99.90;;;;;;4917694;29;20460;-76
2022/10/28 00:38:42;;;;;;;12.20;6.97;;;14.70;99.90;;;;;;4918566;29;20441;-76
2022/10/28 00:41:14;;;;;;;19.37;15.00;;;14.70;99.90;;;;;;4918617;29;20536;-76
2022/10/28 00:43:45;;;;;;;13.60;12.13;;;14.70;99.90;;;;;;4918594;29;20784;-75
2022/10/28 00:46:19;;;;;;;13.57;11.83;;;14.70;99.90;;;;;;4918617;29;20436;-75
2022/10/28 00:48:54;;;;;;;9.93;8.80;;;14.70;99.90;;;;;;4917109;29;20870;-75
2022/10/28 00:51:25;;;;;;;11.17;7.70;;;14.70;99.90;;;;;;4918422;29;20925;-75
2022/10/28 00:53:55;;;;;;;9.83;8.20;;;14.70;99.90;;;;;;4918741;29;20429;-75
2022/10/28 00:56:30;;;;;;;12.23;8.40;;;14.60;99.90;;;;;;4916780;29;20463;-75
2022/10/28 00:59:01;;;;;;;8.90;8.00;;;14.60;99.90;;;;;;4916852;29;20446;-75
2022/10/28 01:01:29;;;;;;;8.20;7.30;;;14.60;99.90;;;;;;4918226;29;20460;-75
2022/10/28 01:03:58;;;;;;;9.10;7.43;;;14.60;99.90;;;;;;4918086;29;20449;-76
2022/10/28 01:06:28;;;;;;;8.83;6.70;;;14.60;99.90;;;;;;4916707;29;20950;-76
2022/10/28 01:08:56;;;;;;;10.40;8.30;;;14.60;99.90;;;;;;4916576;29;20870;-75
2022/10/28 01:11:42;;;;;;;8.73;7.10;;;14.50;99.90;;;;;;4917853;29;20479;-75
2022/10/28 01:14:21;;;;;;;8.97;8.07;;;14.50;99.90;;;;;;4918123;29;20783;-75
2022/10/28 01:17:08;;;;;;;11.17;8.87;;;14.50;99.90;;;;;;4916606;29;20469;-76
2022/10/28 01:20:18;;;;;;;12.20;7.60;;;14.50;99.90;;;;;;4917974;29;20436;-75
2022/10/28 01:22:51;;;;;;;8.70;7.80;;;14.50;99.90;;;;;;4905528;29;20975;-75
2022/10/28 01:25:37;;;;;;;9.47;7.83;;;14.50;99.90;;;;;;4916398;29;20875;-75
2022/10/28 01:28:27;;;;;;;12.27;7.80;;;14.50;99.90;;;;;;4916356;29;20452;-75
2022/10/28 01:31:13;;;;;;;8.73;7.37;;;14.40;99.90;;;;;;4915362;29;20480;-75
2022/10/28 01:33:50;;;;;;;8.43;7.50;;;14.50;99.90;;;;;;4917354;29;20472;-76
2022/10/28 01:36:24;;;;;;;10.10;7.93;;;14.50;99.90;;;;;;4917451;29;20432;-75
2022/10/28 01:39:01;;;;;;;8.63;7.50;;;14.40;99.90;;;;;;4916247;29;20444;-76
2022/10/28 01:41:34;;;;;;;8.73;7.53;;;14.40;99.90;;;;;;4917391;29;20464;-75
2022/10/28 01:44:06;;;;;;;11.93;7.90;;;14.40;99.90;;;;;;4916429;29;20441;-75
2022/10/28 01:46:41;;;;;;;8.80;7.47;;;14.40;99.90;;;;;;4916298;29;20449;-75
2022/10/28 01:49:14;;;;;;;7.73;6.90;;;14.40;99.90;;;;;;4917762;29;20440;-75
2022/10/28 01:51:47;;;;;;;8.97;7.87;;;14.30;99.90;;;;;;4916042;29;20472;-76
2022/10/28 01:54:19;;;;;;;9.07;7.30;;;14.30;99.90;;;;;;4917783;29;20421;-75
2022/10/28 01:56:48;;;;;;;8.70;7.90;;;14.30;99.90;;;;;;4915952;29;20440;-75
2022/10/28 01:59:20;;;;;;;9.63;8.20;;;14.30;99.90;;;;;;4917706;29;20449;-75
2022/10/28 02:01:49;;;;;;;8.73;7.83;;;14.20;99.90;;;;;;4917400;29;20460;-75
2022/10/28 02:04:18;;;;;;;8.93;8.03;;;14.20;99.90;;;;;;4915906;29;20504;-75
2022/10/28 02:06:50;;;;;;;9.53;8.17;;;14.20;99.90;;;;;;4917304;29;20466;-75
2022/10/28 02:09:31;;;;;;;10.03;8.13;;;14.20;99.90;;;;;;4915902;29;20866;-75
2022/10/28 02:12:22;;;;;;;13.50;9.13;;;14.20;99.90;;;;;;4916005;29;20577;-75
2022/10/28 02:15:11;;;;;;;12.03;8.20;;;14.20;99.90;;;;;;4915897;29;20452;-75
2022/10/28 02:17:50;;;;;;;8.93;8.00;;;14.10;99.90;;;;;;4917359;29;20452;-75
2022/10/28 02:20:31;;;;;;;12.23;8.23;;;14.10;99.90;;;;;;4917137;29;20444;-76
2022/10/28 02:23:15;;;;;;;9.50;8.50;;;14.10;99.90;;;;;;4915764;29;20439;-75
2022/10/28 02:25:47;;;;;;;10.63;9.53;;;14.10;99.90;;;;;;4915715;29;20474;-75
2022/10/28 02:28:22;;;;;;;11.63;9.23;;;14.10;99.90;;;;;;4917189;29;20865;-75
2022/10/28 02:30:53;;;;;;;11.70;8.63;;;14.10;99.90;;;;;;4916869;29;20480;-75
2022/10/28 02:33:26;;;;;;;11.70;8.60;;;14.10;99.90;;;;;;4917076;29;20470;-75
2022/10/28 02:35:59;;;;;;;10.20;8.07;;;14.10;99.90;;;;;;4915697;29;20957;-76
2022/10/28 02:38:34;;;;;;;12.30;8.77;;;14.10;99.90;;;;;;4917109;29;20436;-75
2022/10/28 02:41:11;;;;;;;11.00;8.60;;;14.10;99.90;;;;;;4916883;29;20460;-75
2022/10/28 02:43:42;;;;;;;12.20;9.03;;;14.10;99.90;;;;;;4919833;29;20438;-75
2022/10/28 02:46:13;;;;;;;12.67;9.40;;;14.10;99.90;;;;;;4920858;29;20431;-76
2022/10/28 02:48:47;;;;;;;9.57;8.43;;;14.10;99.90;;;;;;4920807;29;20791;-75
2022/10/28 02:51:19;;;;;;;9.30;8.37;;;14.10;99.90;;;;;;4920897;29;20803;-76
2022/10/28 02:53:56;;;;;;;10.50;9.20;;;14.10;99.90;;;;;;4920519;29;20460;-75
2022/10/28 02:56:24;;;;;;;10.13;8.83;;;14.10;99.90;;;;;;4920233;29;20458;-75
2022/10/28 02:58:52;;;;;;;10.40;8.80;;;14.10;99.90;;;;;;4920214;29;20499;-76
2022/10/28 03:01:20;;;;;;;10.50;7.90;;;14.10;99.90;;;;;;4919242;29;20468;-75
2022/10/28 03:03:50;;;;;;;9.67;8.40;;;14.10;99.90;;;;;;4920075;29;20448;-75
2022/10/28 03:06:18;;;;;;;10.53;9.53;;;14.20;99.90;;;;;;4919214;29;20804;-76
2022/10/28 03:08:46;;;;;;;13.30;9.47;;;14.20;99.90;;;;;;4918824;29;20460;-76
2022/10/28 03:11:14;;;;;;;15.10;13.57;;;14.20;99.90;;;;;;4918685;29;20474;-76
2022/10/28 03:13:42;;;;;;;23.83;20.43;;;14.20;99.90;;;;;;4920234;29;20483;-76
2022/10/28 03:16:10;;;;;;;15.07;12.77;;;14.20;99.90;;;;;;4918787;29;20479;-76
2022/10/28 03:18:38;;;;;;;26.57;23.80;;;14.20;99.90;;;;;;4920442;29;20814;-76
2022/10/28 03:21:07;;;;;;;12.87;11.57;;;14.20;99.90;;;;;;4919825;29;20524;-75
2022/10/28 03:23:36;;;;;;;19.13;17.17;;;14.20;99.90;;;;;;4919966;29;20448;-75
2022/10/28 03:26:04;;;;;;;25.13;21.30;;;14.20;99.90;;;;;;4918568;29;20875;-76
2022/10/28 03:28:32;;;;;;;19.20;16.17;;;14.20;99.90;;;;;;4919795;29;20491;-76
2022/10/28 03:31:00;;;;;;;17.83;15.87;;;14.20;99.90;;;;;;4918334;29;20472;-76
2022/10/28 03:33:28;;;;;;;12.67;11.00;;;14.20;99.90;;;;;;4918324;29;20563;-76
2022/10/28 03:35:56;;;;;;;10.93;9.77;;;14.20;99.90;;;;;;4919827;29;20444;-76
2022/10/28 03:38:25;;;;;;;11.10;9.17;;;14.20;99.90;;;;;;4919808;29;20813;-76
2022/10/28 03:40:54;;;;;;;11.23;8.50;;;14.20;99.90;;;;;;4919659;29;21061;-76
2022/10/28 03:43:22;;;;;;;10.13;9.13;;;14.20;99.90;;;;;;4918191;29;20453;-76
2022/10/28 03:45:50;;;;;;;10.83;9.50;;;14.20;99.90;;;;;;4919412;29;20453;-75
2022/10/28 03:48:18;;;;;;;12.87;9.60;;;14.20;99.90;;;;;;4919590;29;20452;-76
2022/10/28 03:50:46;;;;;;;12.77;9.53;;;14.20;99.90;;;;;;4919235;29;20524;-75
2022/10/28 03:53:14;;;;;;;10.33;8.53;;;14.20;99.90;;;;;;4919051;29;20479;-76
2022/10/28 03:55:43;;;;;;;15.50;12.50;;;14.20;99.90;;;;;;4917511;29;20453;-76
2022/10/28 03:58:11;;;;;;;12.87;11.13;;;14.20;99.90;;;;;;4918026;29;20457;-76
2022/10/28 04:00:39;;;;;;;20.37;15.50;;;14.20;99.90;;;;;;4917811;29;20479;-76
2022/10/28 04:03:08;;;;;;;15.20;13.63;;;14.20;99.90;;;;;;4919303;29;20508;-76
2022/10/28 04:05:36;;;;;;;13.00;11.13;;;14.20;99.90;;;;;;4917818;29;20535;-76
2022/10/28 04:08:04;;;;;;;21.47;19.10;;;14.20;99.90;;;;;;4919260;29;20456;-76
2022/10/28 04:10:32;;;;;;;13.23;11.20;;;14.10;99.90;;;;;;4917688;29;20472;-76
2022/10/28 04:13:03;;;;;;;15.17;13.30;;;14.10;99.90;;;;;;4917693;29;20491;-75
2022/10/28 04:15:31;;;;;;;14.00;12.57;;;14.10;99.90;;;;;;4917782;29;20452;-76
2022/10/28 04:17:59;;;;;;;11.70;10.50;;;14.10;99.90;;;;;;4919039;29;21009;-76
2022/10/28 04:20:28;;;;;;;11.93;9.40;;;14.10;99.90;;;;;;4918801;29;20447;-75
2022/10/28 04:22:56;;;;;;;10.53;8.70;;;14.10;99.90;;;;;;4917482;29;20471;-76
2022/10/28 04:25:26;;;;;;;12.70;10.20;;;14.00;99.90;;;;;;4918971;29;20468;-76
2022/10/28 04:27:54;;;;;;;13.77;12.27;;;14.00;99.90;;;;;;4917497;29;20456;-76
2022/10/28 04:30:24;;;;;;;16.93;15.17;;;14.00;99.90;;;;;;4918658;29;20487;-76
2022/10/28 04:32:52;;;;;;;16.43;14.73;;;14.00;99.90;;;;;;4918860;29;20459;-76
2022/10/28 04:35:20;;;;;;;13.23;11.63;;;13.90;99.90;;;;;;4918510;29;20479;-76
2022/10/28 04:37:48;;;;;;;12.63;11.30;;;13.90;99.90;;;;;;4917287;29;20480;-76
2022/10/28 04:40:17;;;;;;;15.00;13.40;;;13.90;99.90;;;;;;4918619;29;20531;-75
2022/10/28 04:42:45;;;;;;;14.77;12.37;;;13.90;99.90;;;;;;4918677;29;20456;-76
2022/10/28 04:45:14;;;;;;;14.87;11.10;;;13.90;99.90;;;;;;4917138;29;20448;-75
2022/10/28 04:47:44;;;;;;;13.97;12.53;;;13.90;99.90;;;;;;4918614;29;20484;-76
2022/10/28 04:50:12;;;;;;;15.20;13.67;;;13.80;99.90;;;;;;4916907;29;20543;-76
2022/10/28 04:52:40;;;;;;;13.57;11.10;;;13.80;99.90;;;;;;4918197;29;20500;-76
2022/10/28 04:55:08;;;;;;;12.40;10.60;;;13.80;99.90;;;;;;4918162;29;20479;-76
2022/10/28 04:57:37;;;;;;;11.60;10.47;;;13.80;99.90;;;;;;4918400;29;20625;-76
2022/10/28 05:00:06;;;;;;;11.73;10.60;;;13.70;99.90;;;;;;4918292;29;20849;-76
2022/10/28 05:02:35;;;;;;;10.57;9.33;;;13.70;99.90;;;;;;4918650;29;21011;-75
2022/10/28 05:05:05;;;;;;;11.93;10.00;;;13.70;99.90;;;;;;4916785;29;20471;-75
2022/10/28 05:07:34;;;;;;;11.50;10.40;;;13.70;99.90;;;;;;4924776;29;20513;-75
2022/10/28 05:10:02;;;;;;;10.27;8.83;;;13.70;99.90;;;;;;4925668;29;20479;-75
2022/10/28 05:12:30;;;;;;;11.80;10.00;;;13.60;99.90;;;;;;4921159;29;20505;-75
2022/10/28 05:14:58;;;;;;;17.33;15.70;;;13.60;99.90;;;;;;4926583;29;20476;-75
2022/10/28 05:17:26;;;;;;;15.47;13.83;;;13.50;99.90;;;;;;4920276;29;20444;-75
2022/10/28 05:19:54;;;;;;;19.40;16.30;;;13.50;99.90;;;;;;4925105;29;20480;-75
2022/10/28 05:22:24;;;;;;;22.37;20.17;;;13.50;99.90;;;;;;4932323;29;20471;-75
2022/10/28 05:24:52;;;;;;;15.37;13.87;;;13.40;99.90;;;;;;4928799;29;20444;-75
2022/10/28 05:27:20;;;;;;;20.97;19.07;;;13.50;99.90;;;;;;4930443;29;20460;-75
2022/10/28 05:29:48;;;;;;;15.03;13.57;;;13.40;99.90;;;;;;4935625;29;20454;-75
2022/10/28 05:32:16;;;;;;;22.23;20.20;;;13.40;99.90;;;;;;4920155;29;21025;-75
2022/10/28 05:34:44;;;;;;;17.33;15.63;;;13.40;99.90;;;;;;4923678;29;20483;-75
2022/10/28 05:37:12;;;;;;;13.97;12.47;;;13.40;99.90;;;;;;4922286;29;20440;-75
2022/10/28 05:39:42;;;;;;;12.70;11.60;;;13.30;99.90;;;;;;4917694;29;20440;-76
2022/10/28 05:42:10;;;;;;;11.67;10.50;;;13.30;99.90;;;;;;4917807;29;20531;-75
2022/10/28 05:44:38;;;;;;;13.33;11.93;;;13.30;99.90;;;;;;4918012;29;20448;-75
2022/10/28 05:47:06;;;;;;;13.40;12.00;;;13.30;99.90;;;;;;4917434;29;20445;-76
2022/10/28 05:49:34;;;;;;;15.37;12.67;;;13.30;99.90;;;;;;4917620;29;20851;-75
2022/10/28 05:52:02;;;;;;;12.83;11.20;;;13.30;99.90;;;;;;4917344;29;20521;-75
2022/10/28 05:54:30;;;;;;;15.87;11.33;;;13.30;99.90;;;;;;4917264;29;20484;-76
2022/10/28 05:57:00;;;;;;;11.70;10.50;;;13.30;99.90;;;;;;4917286;29;20488;-76
2022/10/28 05:59:28;;;;;;;12.23;10.73;;;13.20;99.90;;;;;;4917521;29;20441;-76
2022/10/28 06:01:56;;;;;;;11.80;10.40;;;13.20;99.90;;;;;;4915870;29;20500;-75
2022/10/28 06:04:24;;;;;;;11.40;10.20;;;13.20;99.90;;;;;;4915960;29;20476;-76
2022/10/28 06:06:55;;;;;;;14.40;10.90;;;13.20;99.90;;;;;;4915978;29;20543;-76
2022/10/28 06:09:23;;;;;;;14.90;11.80;;;13.20;99.90;;;;;;4917734;29;20423;-76
2022/10/28 06:11:51;;;;;;;14.33;12.00;;;13.20;99.90;;;;;;4915786;29;20515;-75
2022/10/28 06:14:20;;;;;;;13.77;12.47;;;13.20;99.90;;;;;;4917009;29;20503;-76
2022/10/28 06:16:48;;;;;;;14.97;13.47;;;13.20;99.90;;;;;;4916184;29;20474;-76
2022/10/28 06:19:16;;;;;;;14.80;13.33;;;13.20;99.90;;;;;;4921337;29;20849;-75
2022/10/28 06:21:45;;;;;;;16.67;13.43;;;13.20;99.90;;;;;;4920975;29;20468;-75
2022/10/28 06:24:13;;;;;;;15.10;13.20;;;13.20;99.90;;;;;;4919759;29;20485;-76
2022/10/28 06:26:41;;;;;;;14.50;12.80;;;13.20;99.90;;;;;;4921105;29;20443;-75
2022/10/28 06:29:10;;;;;;;13.43;12.10;;;13.20;99.90;;;;;;4921116;29;20499;-76
2022/10/28 06:31:41;;;;;;;14.43;12.83;;;13.20;99.90;;;;;;4921266;29;20471;-76
2022/10/28 06:34:09;;;;;;;15.80;13.50;;;13.20;99.90;;;;;;4921264;29;20424;-76
2022/10/28 06:36:37;;;;;;;14.40;13.00;;;13.20;99.90;;;;;;4919400;29;20486;-75
2022/10/28 06:39:05;;;;;;;13.93;12.50;;;13.20;99.90;;;;;;4920672;29;20444;-76
2022/10/28 06:41:34;;;;;;;12.97;11.63;;;13.20;99.90;;;;;;4919266;29;20527;-75
2022/10/28 06:44:02;;;;;;;13.77;11.87;;;13.20;99.90;;;;;;4920757;29;20451;-75
2022/10/28 06:46:30;;;;;;;13.63;12.30;;;13.20;99.90;;;;;;4919612;29;20454;-75
2022/10/28 06:49:01;;;;;;;13.93;11.60;;;13.20;99.90;;;;;;4920519;29;20993;-75
2022/10/28 06:51:30;;;;;;;14.43;12.63;;;13.20;99.90;;;;;;4920582;29;20470;-75
2022/10/28 06:53:58;;;;;;;18.93;12.80;;;13.20;99.90;;;;;;4919148;29;20503;-75
2022/10/28 06:56:26;;;;;;;15.60;11.67;;;13.20;99.90;;;;;;4920094;29;20483;-75
2022/10/28 06:58:55;;;;;;;13.90;12.43;;;13.30;99.90;;;;;;4920281;29;20519;-76
2022/10/28 07:01:23;;;;;;;16.43;13.30;;;13.30;99.90;;;;;;4919542;29;20535;-75
2022/10/28 07:03:51;;;;;;;16.17;14.43;;;13.30;99.90;;;;;;4919144;29;20459;-75
2022/10/28 07:06:21;;;;;;;18.87;13.93;;;13.30;99.90;;;;;;4920813;29;20444;-75
2022/10/28 07:08:49;;;;;;;14.80;13.17;;;13.30;99.90;;;;;;4918972;29;20455;-74
2022/10/28 07:11:17;;;;;;;16.30;13.43;;;13.30;99.90;;;;;;4920603;29;20468;-75
2022/10/28 07:13:45;;;;;;;14.93;13.43;;;13.30;99.90;;;;;;4921308;29;20504;-74
2022/10/28 07:16:16;;;;;;;15.17;13.63;;;13.30;99.90;;;;;;4920037;29;20472;-74
2022/10/28 07:18:44;;;;;;;14.77;13.37;;;13.30;99.90;;;;;;4920152;29;20439;-75
2022/10/28 07:21:13;;;;;;;16.30;13.20;;;13.40;99.90;;;;;;4918770;29;20562;-74
2022/10/28 07:23:42;;;;;;;31.43;14.50;;;13.40;99.90;;;;;;4920252;29;20479;-75
2022/10/28 07:26:10;;;;;;;14.90;13.50;;;13.40;99.90;;;;;;4920035;29;20448;-75
2022/10/28 07:28:38;;;;;;;13.70;12.30;;;13.50;99.90;;;;;;4918584;29;20472;-74
2022/10/28 07:31:07;;;;;;;16.03;13.90;;;13.50;99.90;;;;;;4920398;29;20551;-75
2022/10/28 07:33:35;;;;;;;14.97;11.90;;;13.50;99.90;;;;;;4918574;29;20448;-75
2022/10/28 07:36:04;;;;;;;16.23;12.80;;;13.50;99.90;;;;;;4918921;29;20487;-75
2022/10/28 07:38:32;;;;;;;13.43;12.13;;;13.60;99.90;;;;;;4920295;29;20437;-74
2022/10/28 07:41:05;;;;;;;14.43;12.43;;;13.60;99.90;;;;;;4919615;29;20467;-75
2022/10/28 07:43:36;;;;;;;13.10;11.83;;;13.70;99.90;;;;;;4918478;29;20996;-75
2022/10/28 07:46:05;;;;;;;13.07;11.70;;;13.60;99.90;;;;;;4920214;29;20432;-75
2022/10/28 07:48:33;;;;;;;14.03;12.63;;;13.70;99.90;;;;;;4919647;29;20456;-75
2022/10/28 07:51:02;;;;;;;13.70;11.80;;;13.70;99.90;;;;;;4918386;29;20472;-75
2022/10/28 07:53:31;;;;;;;15.10;12.37;;;13.70;99.90;;;;;;4918200;29;20451;-75
2022/10/28 07:56:01;;;;;;;15.33;12.67;;;13.80;99.90;;;;;;4919577;29;20515;-75
2022/10/28 07:58:31;;;;;;;12.83;11.53;;;13.80;99.90;;;;;;4919547;29;20919;-75
2022/10/28 08:01:04;;;;;;;13.93;12.20;;;13.90;99.90;;;;;;4919603;29;20512;-75
2022/10/28 08:03:33;;;;;;;12.83;10.83;;;13.90;99.90;;;;;;4919588;29;20563;-74
2022/10/28 08:06:08;;;;;;;13.10;11.70;;;14.00;99.90;;;;;;4918018;29;20463;-75
2022/10/28 08:08:36;;;;;;;13.63;11.57;;;14.00;99.90;;;;;;4918150;29;20440;-74
2022/10/28 08:11:12;;;;;;;12.97;11.43;;;14.10;99.90;;;;;;4917806;29;21005;-75
2022/10/28 08:13:42;;;;;;;13.80;11.40;;;14.20;99.90;;;;;;4919610;29;20451;-75
2022/10/28 08:16:10;;;;;;;13.17;11.67;;;14.20;99.90;;;;;;4919366;29;20476;-75
2022/10/28 08:18:39;;;;;;;13.53;10.27;;;14.30;99.90;;;;;;4919708;29;20516;-75
2022/10/28 08:21:09;;;;;;;11.70;10.47;;;14.30;99.90;;;;;;4919122;29;20472;-74
2022/10/28 08:23:38;;;;;;;15.20;11.60;;;14.40;99.90;;;;;;4919784;29;20451;-74
2022/10/28 08:26:06;;;;;;;12.70;10.60;;;14.50;99.90;;;;;;4919220;29;20445;-74
2022/10/28 08:28:34;;;;;;;14.47;10.73;;;14.50;99.90;;;;;;4919026;29;20468;-75
2022/10/28 08:31:07;;;;;;;12.17;10.37;;;14.60;99.90;;;;;;4918974;29;20470;-75
2022/10/28 08:33:38;;;;;;;13.83;10.50;;;14.60;99.90;;;;;;4919049;29;20482;-74
2022/10/28 08:36:07;;;;;;;12.33;9.63;;;14.70;99.90;;;;;;4918861;29;20988;-74
2022/10/28 08:38:35;;;;;;;12.30;9.80;;;14.80;99.90;;;;;;4917436;29;20441;-75
2022/10/28 08:41:19;;;;;;;12.93;10.10;;;14.80;99.90;;;;;;4917619;29;20476;-74
2022/10/28 08:43:58;;;;;;;12.90;9.10;;;15.00;99.90;;;;;;4917644;29;20448;-74
2022/10/28 08:46:41;;;;;;;10.73;9.33;;;15.00;99.90;;;;;;4918499;29;20437;-75
2022/10/28 08:49:12;;;;;;;10.97;8.50;;;15.10;99.90;;;;;;4918946;29;20425;-75
2022/10/28 08:51:48;;;;;;;11.83;8.73;;;15.20;99.90;;;;;;4919513;29;21048;-75
2022/10/28 08:54:19;;;;;;;13.73;8.33;;;15.30;99.90;;;;;;4919081;29;20424;-74
2022/10/28 08:56:49;;;;;;;14.10;8.00;;;15.30;99.90;;;;;;4916993;29;20849;-75
2022/10/28 08:59:21;;;;;;;12.90;8.53;;;15.40;99.90;;;;;;4918377;29;20443;-74
2022/10/28 09:01:56;;;;;;;10.23;7.07;;;15.50;99.90;;;;;;4916945;29;20476;-74
2022/10/28 09:04:37;;;;;;;12.10;8.00;;;15.60;99.90;;;;;;4917524;29;20451;-75
2022/10/28 09:07:06;;;;;;;9.30;7.07;;;15.70;99.90;;;;;;4918485;29;20508;-73
2022/10/28 09:09:34;;;;;;;7.70;6.90;;;15.80;99.90;;;;;;4918523;29;20500;-74
2022/10/28 09:12:22;;;;;;;9.37;6.57;;;15.90;99.90;;;;;;4918393;29;20838;-73
2022/10/28 09:15:04;;;;;;;11.23;7.60;;;16.00;99.90;;;;;;4917174;29;20447;-73
2022/10/28 09:17:42;;;;;;;9.33;6.63;;;16.10;99.90;;;;;;4918285;29;20435;-73
2022/10/28 09:20:18;;;;;;;10.53;6.07;;;16.20;99.90;;;;;;4916871;29;20432;-74
2022/10/28 09:22:55;;;;;;;11.80;6.73;;;16.30;99.90;;;;;;4916829;29;20444;-73
2022/10/28 09:25:30;;;;;;;11.83;6.30;;;16.40;99.90;;;;;;4918046;29;20428;-74
2022/10/28 09:28:16;;;;;;;12.33;6.97;;;16.50;99.90;;;;;;4916723;29;20452;-73
2022/10/28 09:30:54;;;;;;;8.70;5.80;;;16.60;99.90;;;;;;4918070;29;20533;-73
2022/10/28 09:33:42;;;;;;;12.60;6.70;;;16.80;99.90;;;;;;4916620;29;20456;-73
2022/10/28 09:36:16;;;;;;;9.00;6.20;;;16.90;99.90;;;;;;4918152;29;20464;-73
2022/10/28 09:38:45;;;;;;;7.80;5.23;;;17.00;99.90;;;;;;4916661;29;20427;-73
2022/10/28 09:41:19;;;;;;;9.93;5.83;;;17.10;99.90;;;;;;4917643;29;20568;-73
2022/10/28 09:43:50;;;;;;;10.80;5.60;;;17.20;99.90;;;;;;4916487;29;20471;-73
2022/10/28 09:46:19;;;;;;;9.30;5.67;;;17.30;99.90;;;;;;4917884;29;20870;-73
2022/10/28 09:48:51;;;;;;;12.50;6.80;;;17.40;99.90;;;;;;4917752;29;20411;-73
2022/10/28 09:51:29;;;;;;;13.50;5.63;;;17.50;99.90;;;;;;4915831;29;20459;-73
2022/10/28 09:53:58;;;;;;;14.37;5.60;;;17.70;99.90;;;;;;4918069;29;20858;-73
2022/10/28 09:56:28;;;;;;;9.07;5.80;;;17.70;99.90;;;;;;4917533;29;20461;-74
2022/10/28 09:59:00;;;;;;;9.63;5.60;;;17.80;99.90;;;;;;4918324;29;20399;-75
2022/10/28 10:01:31;;;;;;;9.20;5.50;;;17.90;99.90;;;;;;4921034;29;20442;-74
2022/10/28 10:04:02;;;;;;;10.30;5.10;;;18.00;99.90;;;;;;4923352;29;20419;-74
2022/10/28 10:06:35;;;;;;;14.07;5.77;;;18.10;99.90;;;;;;4923729;29;20425;-73
2022/10/28 10:09:04;;;;;;;10.07;5.20;;;18.20;99.90;;;;;;4924156;29;20906;-73
2022/10/28 10:11:37;;;;;;;12.50;5.00;;;18.20;99.90;;;;;;4924107;29;20977;-74
2022/10/28 10:14:09;;;;;;;7.03;4.50;;;18.30;99.90;;;;;;4926118;29;20457;-74
2022/10/28 10:16:42;;;;;;;12.50;5.80;;;18.40;99.90;;;;;;4923839;29;20491;-73
2022/10/28 10:19:12;;;;;;;13.77;4.87;;;18.50;99.90;;;;;;4918415;29;20785;-74
2022/10/28 10:21:42;;;;;;;11.87;6.10;;;18.60;99.90;;;;;;4918039;29;20479;-73
2022/10/28 10:24:30;;;;;;;10.37;6.17;;;18.60;99.90;;;;;;4919217;29;20429;-73
2022/10/28 10:27:01;;;;;;;10.43;5.53;;;18.70;99.90;;;;;;4918443;29;20452;-74
2022/10/28 10:29:30;;;;;;;7.93;5.17;;;18.80;99.90;;;;;;4917383;29;20399;-73
2022/10/28 10:32:08;;;;;;;12.43;5.53;;;18.80;99.90;;;;;;4917164;29;20987;-74
2022/10/28 10:34:37;;;;;;;15.00;6.30;;;18.90;99.90;;;;;;4917053;29;20502;-74
2022/10/28 10:37:12;;;;;;;11.70;5.63;;;19.00;99.90;;;;;;4916813;29;20472;-74
2022/10/28 10:39:40;;;;;;;16.33;6.07;;;19.00;99.90;;;;;;4917506;29;20406;-74
2022/10/28 10:42:16;;;;;;;11.17;5.00;;;19.10;99.90;;;;;;4915472;29;20898;-74
2022/10/28 10:44:59;;;;;;;12.70;6.43;;;19.20;99.90;;;;;;4915574;29;20522;-74
2022/10/28 10:47:28;;;;;;;13.20;5.53;;;19.30;99.90;;;;;;4915570;29;20447;-74
2022/10/28 10:50:28;;;;;;;9.57;5.77;;;19.40;99.90;;;;;;4916838;29;20463;-74
2022/10/28 10:52:58;;;;;;;10.90;5.00;;;19.40;99.90;;;;;;4917038;29;20429;-74
2022/10/28 10:55:33;;;;;;;18.10;6.03;;;19.50;99.90;;;;;;4916826;29;20452;-74
2022/10/28 10:58:02;;;;;;;10.40;5.47;;;19.60;99.90;;;;;;4916917;29;20456;-74
2022/10/28 11:00:33;;;;;;;12.90;5.17;;;19.70;99.90;;;;;;4915351;29;20452;-74
2022/10/28 11:03:03;;;;;;;11.87;4.90;;;19.80;99.90;;;;;;4917683;29;20440;-74
2022/10/28 11:05:33;;;;;;;10.27;6.40;;;19.80;99.90;;;;;;4920492;29;20942;-74
2022/10/28 11:08:06;;;;;;;10.57;6.60;;;19.90;99.90;;;;;;4920388;29;20456;-74
2022/10/28 11:10:35;;;;;;;12.07;6.40;;;19.90;99.90;;;;;;4920004;29;21005;-74
2022/10/28 11:13:06;;;;;;;11.50;5.20;;;20.00;99.90;;;;;;4920339;29;20893;-74
2022/10/28 11:15:34;;;;;;;11.30;4.87;;;20.10;99.90;;;;;;4918802;29;20451;-74
2022/10/28 11:18:15;;;;;;;10.10;5.20;;;20.10;99.90;;;;;;4921707;29;20535;-78
2022/10/28 11:20:53;;;;;;;10.50;6.40;;;20.20;99.90;;;;;;4922874;29;20476;-79
2022/10/28 11:23:31;;;;;;;12.20;4.63;;;20.30;99.90;;;;;;4922631;29;20531;-79
2022/10/28 11:26:03;;;;;;;9.90;5.57;;;20.30;99.90;;;;;;4924126;29;20830;-80
2022/10/28 11:28:47;;;;;;;11.37;5.03;;;20.40;99.90;;;;;;4924239;29;20425;-79
2022/10/28 11:31:38;;;;;;;11.30;6.80;;;20.50;99.90;;;;;;4925831;29;21000;-79
2022/10/28 11:34:29;;;;;;;10.60;5.00;;;20.60;99.90;;;;;;4924143;29;20425;-79
2022/10/28 11:37:09;;;;;;;11.43;5.53;;;20.70;99.90;;;;;;4924482;29;20448;-80
2022/10/28 11:39:46;;;;;;;12.57;5.10;;;20.70;99.90;;;;;;4927991;29;20439;-80
2022/10/28 11:42:23;;;;;;;13.60;5.70;;;20.80;99.90;;;;;;4927363;29;20487;-79
2022/10/28 11:44:55;;;;;;;12.47;6.20;;;20.90;99.90;;;;;;4925362;29;20440;-80
2022/10/28 11:47:37;;;;;;;15.00;5.87;;;20.90;99.90;;;;;;4925948;29;20441;-80
2022/10/28 11:50:27;;;;;;;9.80;4.97;;;21.00;99.90;;;;;;4927800;29;20424;-80
2022/10/28 11:53:17;;;;;;;10.40;5.70;;;21.00;99.90;;;;;;4924783;29;20483;-79
2022/10/28 11:55:50;;;;;;;10.07;5.07;;;21.10;99.90;;;;;;4926577;29;20460;-80
2022/10/28 11:58:28;;;;;;;11.17;6.70;;;21.10;99.90;;;;;;4924823;29;20485;-79
2022/10/28 12:01:10;;;;;;;10.07;4.80;;;21.20;99.90;;;;;;4927147;29;20479;-80
2022/10/28 12:04:00;;;;;;;11.50;5.60;;;21.20;99.90;;;;;;4924818;29;20448;-79
2022/10/28 12:06:38;;;;;;;10.00;5.07;;;21.30;99.90;;;;;;4926295;29;20480;-79
2022/10/28 12:09:20;;;;;;;11.43;6.03;;;21.30;99.90;;;;;;4926707;29;20435;-79
2022/10/28 12:12:05;;;;;;;10.80;5.50;;;21.30;99.90;;;;;;4924694;29;20487;-80
2022/10/28 12:14:45;;;;;;;10.00;5.23;;;21.40;99.90;;;;;;4926294;29;20455;-80
2022/10/28 12:17:19;;;;;;;14.30;6.73;;;21.40;99.90;;;;;;4925608;29;20854;-80
2022/10/28 12:19:54;;;;;;;13.70;5.70;;;21.40;99.90;;;;;;4926639;29;20780;-80
2022/10/28 12:22:26;;;;;;;11.23;6.07;;;21.40;99.90;;;;;;4925994;29;20464;-80
2022/10/28 12:24:58;;;;;;;10.17;5.40;;;21.40;99.90;;;;;;4926401;29;20433;-80
2022/10/28 12:27:30;;;;;;;8.60;4.97;;;21.40;99.90;;;;;;4923864;29;20882;-80
2022/10/28 12:30:06;;;;;;;9.60;5.07;;;21.40;99.90;;;;;;4923491;29;20441;-80
2022/10/28 12:32:36;;;;;;;10.03;5.47;;;21.50;99.90;;;;;;4923219;29;20504;-80
2022/10/28 12:35:08;;;;;;;10.70;5.70;;;21.50;99.90;;;;;;4923646;29;21111;-80
2022/10/28 12:37:40;;;;;;;8.20;5.70;;;21.50;99.90;;;;;;4923438;29;20496;-80
2022/10/28 12:40:19;;;;;;;13.13;5.70;;;21.40;99.90;;;;;;4923043;29;20456;-80
2022/10/28 12:42:53;;;;;;;12.97;5.97;;;21.50;99.90;;;;;;4922674;29;20460;-80
2022/10/28 12:45:23;;;;;;;13.20;6.87;;;21.50;99.90;;;;;;4924244;29;20440;-80
2022/10/28 12:47:57;;;;;;;11.30;5.40;;;21.50;99.90;;;;;;4922158;29;20460;-80
2022/10/28 12:50:31;;;;;;;10.63;5.33;;;21.50;99.90;;;;;;4923705;29;20918;-81
2022/10/28 12:53:14;;;;;;;14.23;5.70;;;21.50;99.90;;;;;;4924505;29;20439;-80
2022/10/28 12:55:49;;;;;;;10.27;5.80;;;21.50;99.90;;;;;;4922685;29;20483;-80
2022/10/28 12:58:22;;;;;;;10.43;5.67;;;21.50;99.90;;;;;;4922145;29;20468;-80
2022/10/28 13:00:54;;;;;;;9.03;5.60;;;21.50;99.90;;;;;;4923403;29;20464;-80